createdAt,value
2017-07-19T00:00:22.350Z,20.37
2017-07-19T00:02:50.021Z,20.19
2017-07-19T00:05:18.243Z,20.16
2017-07-19T00:07:45.955Z,20.14
2017-07-19T00:10:15.142Z,20.13
2017-07-19T00:12:42.794Z,20.17
2017-07-19T00:15:11.506Z,19.97
2017-07-19T00:17:39.978Z,19.92
2017-07-19T00:20:07.655Z,19.88
2017-07-19T00:22:36.014Z,19.90
2017-07-19T00:25:04.410Z,19.84
2017-07-19T00:27:32.072Z,19.81
2017-07-19T00:30:00.523Z,19.88
2017-07-19T00:32:28.216Z,19.91
2017-07-19T00:34:55.879Z,19.89
2017-07-19T00:37:23.570Z,19.81
2017-07-19T00:39:51.270Z,19.84
2017-07-19T00:42:18.922Z,19.88
2017-07-19T00:44:46.611Z,19.72
2017-07-19T00:47:14.304Z,19.51
2017-07-19T00:49:42.548Z,19.48
2017-07-19T00:52:11.226Z,19.50
2017-07-19T00:54:39.255Z,19.44
2017-07-19T00:57:07.004Z,19.40
2017-07-19T00:59:34.644Z,19.30
2017-07-19T01:02:02.808Z,19.21
2017-07-19T01:04:30.475Z,19.22
2017-07-19T01:06:58.122Z,19.07
2017-07-19T01:09:25.845Z,19.17
2017-07-19T01:11:53.527Z,19.19
2017-07-19T01:14:21.292Z,19.02
2017-07-19T01:16:49.750Z,19.00
2017-07-19T01:19:17.455Z,19.12
2017-07-19T01:21:46.125Z,18.91
2017-07-19T01:24:14.662Z,18.78
2017-07-19T01:26:42.335Z,18.70
2017-07-19T01:29:10.070Z,18.73
2017-07-19T01:34:38.689Z,18.98
2017-07-19T01:37:06.360Z,18.95
2017-07-19T01:39:34.683Z,18.91
2017-07-19T01:42:03.492Z,18.91
2017-07-19T01:44:31.252Z,18.92
2017-07-19T01:46:58.964Z,19.15
2017-07-19T01:49:27.802Z,19.08
2017-07-19T01:51:55.521Z,18.98
2017-07-19T01:54:23.362Z,19.08
2017-07-19T01:56:51.028Z,19.32
2017-07-19T01:59:18.711Z,19.42
2017-07-19T02:01:46.470Z,19.40
2017-07-19T02:04:14.493Z,19.35
2017-07-19T02:06:42.269Z,19.15
2017-07-19T02:09:10.096Z,19.28
2017-07-19T02:11:37.802Z,19.23
2017-07-19T02:14:05.519Z,19.28
2017-07-19T02:16:33.195Z,19.21
2017-07-19T02:19:00.927Z,19.12
2017-07-19T02:21:28.818Z,19.20
2017-07-19T02:23:57.365Z,19.13
2017-07-19T02:26:25.041Z,19.05
2017-07-19T02:28:52.732Z,18.99
2017-07-19T02:31:20.508Z,18.86
2017-07-19T02:33:48.198Z,18.89
2017-07-19T02:36:15.993Z,18.94
2017-07-19T02:38:43.715Z,19.02
2017-07-19T02:41:11.366Z,19.00
2017-07-19T02:43:40.073Z,18.92
2017-07-19T02:46:07.768Z,18.83
2017-07-19T02:48:35.342Z,18.73
2017-07-19T02:51:03.093Z,18.79
2017-07-19T02:53:30.918Z,18.65
2017-07-19T02:55:58.626Z,18.55
2017-07-19T02:58:26.391Z,18.51
2017-07-19T03:00:54.072Z,18.52
2017-07-19T03:03:22.684Z,18.47
2017-07-19T03:05:50.382Z,18.36
2017-07-19T03:08:18.068Z,18.33
2017-07-19T03:10:45.760Z,18.34
2017-07-19T03:13:13.479Z,18.40
2017-07-19T03:15:42.289Z,18.44
2017-07-19T03:18:09.952Z,18.26
2017-07-19T03:20:37.615Z,18.27
2017-07-19T03:23:05.279Z,18.24
2017-07-19T03:25:33.893Z,18.32
2017-07-19T03:28:02.417Z,18.41
2017-07-19T03:30:30.149Z,18.35
2017-07-19T03:32:57.865Z,18.32
2017-07-19T03:35:25.518Z,18.30
2017-07-19T03:37:53.256Z,18.33
2017-07-19T03:40:20.935Z,18.37
2017-07-19T03:42:48.610Z,18.25
2017-07-19T03:45:16.295Z,18.35
2017-07-19T03:47:45.408Z,18.44
2017-07-19T03:50:13.893Z,18.51
2017-07-19T03:52:41.561Z,18.66
2017-07-19T03:55:10.455Z,18.78
2017-07-19T03:57:38.090Z,18.81
2017-07-19T04:00:07.440Z,18.55
2017-07-19T04:02:35.089Z,18.66
2017-07-19T04:05:02.742Z,18.76
2017-07-19T04:07:30.421Z,18.87
2017-07-19T04:09:58.111Z,18.83
2017-07-19T04:12:25.880Z,18.91
2017-07-19T04:14:53.861Z,18.89
2017-07-19T04:17:21.594Z,18.77
2017-07-19T04:19:49.226Z,18.64
2017-07-19T04:22:17.788Z,18.70
2017-07-19T04:24:46.104Z,18.85
2017-07-19T04:27:13.918Z,19.93
2017-07-19T04:29:42.763Z,20.21
2017-07-19T04:32:10.477Z,20.95
2017-07-19T04:34:38.093Z,21.52
2017-07-19T04:37:05.844Z,21.67
2017-07-19T04:39:33.597Z,21.88
2017-07-19T04:42:01.450Z,21.87
2017-07-19T04:44:29.127Z,21.97
2017-07-19T04:46:56.902Z,21.41
2017-07-19T04:49:24.573Z,21.52
2017-07-19T04:51:52.230Z,22.08
2017-07-19T04:54:19.790Z,22.01
2017-07-19T04:56:47.350Z,21.12
2017-07-19T04:59:14.983Z,20.78
2017-07-19T05:01:42.639Z,20.51
2017-07-19T05:04:10.497Z,20.74
2017-07-19T05:06:38.134Z,20.74
2017-07-19T05:09:05.758Z,20.20
2017-07-19T05:11:33.337Z,20.28
2017-07-19T05:14:00.870Z,20.39
2017-07-19T05:16:28.473Z,19.99
2017-07-19T05:18:59.862Z,19.96
2017-07-19T05:21:27.468Z,20.03
2017-07-19T05:23:55.156Z,20.34
2017-07-19T05:26:22.722Z,20.30
2017-07-19T05:28:50.714Z,20.36
2017-07-19T05:31:18.336Z,20.66
2017-07-19T05:33:45.972Z,20.82
2017-07-19T05:36:13.636Z,20.88
2017-07-19T05:38:41.287Z,21.06
2017-07-19T05:41:08.939Z,21.17
2017-07-19T05:43:36.578Z,21.45
2017-07-19T05:46:04.185Z,21.69
2017-07-19T05:48:32.723Z,21.78
2017-07-19T05:51:00.319Z,22.05
2017-07-19T05:53:27.893Z,21.98
2017-07-19T05:55:55.488Z,22.38
2017-07-19T05:58:23.098Z,22.67
2017-07-19T06:00:51.536Z,23.01
2017-07-19T06:03:19.123Z,23.00
2017-07-19T06:06:35.703Z,23.13
2017-07-19T06:09:03.479Z,23.43
2017-07-19T06:11:31.054Z,23.61
2017-07-19T06:14:03.240Z,23.66
2017-07-19T06:16:32.571Z,24.00
2017-07-19T06:19:00.136Z,23.90
2017-07-19T06:21:27.910Z,24.21
2017-07-19T06:23:55.442Z,24.09
2017-07-19T06:26:23.044Z,24.22
2017-07-19T06:28:51.480Z,24.58
2017-07-19T06:31:19.160Z,24.84
2017-07-19T06:33:47.694Z,24.76
2017-07-19T06:36:15.281Z,24.75
2017-07-19T06:38:43.202Z,25.29
2017-07-19T06:41:10.837Z,25.45
2017-07-19T06:43:38.463Z,25.76
2017-07-19T06:46:06.139Z,25.59
2017-07-19T06:48:33.707Z,25.51
2017-07-19T06:51:01.329Z,25.75
2017-07-19T06:53:29.003Z,26.24
2017-07-19T06:55:56.858Z,26.21
2017-07-19T06:58:24.654Z,26.31
2017-07-19T07:00:53.000Z,26.29
2017-07-19T07:03:20.581Z,26.55
2017-07-19T07:05:48.302Z,26.34
2017-07-19T07:08:16.640Z,26.06
2017-07-19T07:10:45.076Z,25.71
2017-07-19T07:13:12.642Z,25.94
2017-07-19T07:15:40.370Z,25.96
2017-07-19T07:18:08.019Z,26.43
2017-07-19T07:20:35.927Z,26.48
2017-07-19T07:23:03.576Z,26.34
2017-07-19T07:25:31.358Z,26.63
2017-07-19T07:27:58.944Z,27.15
2017-07-19T07:30:27.512Z,27.22
2017-07-19T07:32:55.137Z,27.07
2017-07-19T07:35:22.805Z,26.99
2017-07-19T07:37:50.481Z,26.93
2017-07-19T07:40:18.111Z,26.84
2017-07-19T07:42:45.667Z,26.97
2017-07-19T07:45:14.512Z,27.36
2017-07-19T07:47:42.060Z,27.33
2017-07-19T07:50:09.677Z,28.04
2017-07-19T07:52:37.441Z,28.24
2017-07-19T07:55:05.139Z,28.17
2017-07-19T07:57:34.428Z,28.29
2017-07-19T08:00:02.232Z,28.48
2017-07-19T08:02:30.167Z,28.92
2017-07-19T08:04:57.745Z,28.90
2017-07-19T08:07:25.334Z,28.97
2017-07-19T08:09:52.977Z,28.83
2017-07-19T08:12:20.575Z,29.07
2017-07-19T08:14:49.071Z,29.12
2017-07-19T08:17:17.153Z,29.38
2017-07-19T08:19:44.724Z,29.48
2017-07-19T08:22:12.254Z,29.58
2017-07-19T08:24:39.863Z,29.59
2017-07-19T08:27:07.450Z,29.47
2017-07-19T08:29:35.095Z,29.50
2017-07-19T08:32:03.929Z,29.64
2017-07-19T08:34:32.366Z,30.00
2017-07-19T08:36:59.907Z,29.04
2017-07-19T08:39:27.514Z,28.82
2017-07-19T08:41:55.193Z,29.29
2017-07-19T08:44:22.741Z,29.69
2017-07-19T08:46:50.377Z,29.82
2017-07-19T08:49:18.158Z,28.57
2017-07-19T08:51:45.721Z,28.92
2017-07-19T08:54:13.583Z,28.47
2017-07-19T08:56:41.962Z,29.15
2017-07-19T08:59:09.548Z,29.02
2017-07-19T09:01:37.143Z,28.18
2017-07-19T09:04:04.791Z,28.00
2017-07-19T09:06:32.328Z,28.84
2017-07-19T09:09:00.506Z,28.72
2017-07-19T09:11:28.118Z,28.82
2017-07-19T09:13:55.825Z,29.24
2017-07-19T09:16:23.944Z,29.30
2017-07-19T09:18:51.572Z,28.84
2017-07-19T09:21:19.197Z,29.06
2017-07-19T09:23:46.818Z,29.65
2017-07-19T09:26:14.573Z,29.55
2017-07-19T09:28:43.028Z,29.55
2017-07-19T09:31:10.718Z,29.50
2017-07-19T09:33:38.318Z,29.73
2017-07-19T09:36:05.901Z,29.72
2017-07-19T09:38:33.535Z,29.33
2017-07-19T09:41:01.142Z,29.59
2017-07-19T09:43:28.807Z,29.77
2017-07-19T09:45:56.441Z,30.05
2017-07-19T09:48:24.009Z,30.46
2017-07-19T09:50:51.594Z,30.32
2017-07-19T09:53:19.179Z,30.67
2017-07-19T09:55:46.910Z,30.55
2017-07-19T09:58:14.495Z,30.44
2017-07-19T10:00:42.216Z,30.29
2017-07-19T10:03:10.060Z,30.64
2017-07-19T10:05:37.845Z,30.80
2017-07-19T10:10:46.333Z,29.81
2017-07-19T10:13:14.939Z,30.14
2017-07-19T10:15:42.583Z,29.81
2017-07-19T10:18:10.166Z,30.05
2017-07-19T10:20:38.421Z,30.33
2017-07-19T10:23:06.824Z,30.18
2017-07-19T10:25:34.429Z,29.04
2017-07-19T10:28:02.044Z,28.56
2017-07-19T10:30:30.104Z,28.89
2017-07-19T10:32:57.755Z,29.32
2017-07-19T10:35:26.365Z,28.76
2017-07-19T10:37:54.005Z,28.75
2017-07-19T10:40:21.611Z,29.42
2017-07-19T10:42:58.617Z,29.74
2017-07-19T10:45:26.337Z,30.32
2017-07-19T10:47:54.409Z,30.56
2017-07-19T10:50:22.040Z,29.75
2017-07-19T10:52:49.787Z,29.47
2017-07-19T10:55:17.513Z,29.66
2017-07-19T10:57:45.130Z,29.99
2017-07-19T11:00:12.807Z,29.78
2017-07-19T11:02:40.371Z,29.43
2017-07-19T11:05:08.673Z,29.54
2017-07-19T11:07:36.302Z,30.05
2017-07-19T11:10:03.929Z,30.37
2017-07-19T11:12:31.566Z,30.41
2017-07-19T11:14:59.238Z,30.74
2017-07-19T11:17:27.055Z,30.92
2017-07-19T11:19:54.676Z,31.23
2017-07-19T11:22:22.285Z,30.26
2017-07-19T11:24:49.941Z,30.30
2017-07-19T11:27:17.543Z,30.14
2017-07-19T11:29:45.139Z,30.10
2017-07-19T11:32:13.041Z,30.20
2017-07-19T11:34:40.708Z,30.25
2017-07-19T11:37:08.344Z,29.93
2017-07-19T11:39:36.495Z,29.92
2017-07-19T11:42:04.139Z,29.60
2017-07-19T11:44:31.751Z,29.86
2017-07-19T11:47:00.566Z,29.80
2017-07-19T11:49:28.154Z,29.67
2017-07-19T11:51:55.698Z,29.65
2017-07-19T11:54:24.165Z,29.75
2017-07-19T11:56:53.925Z,29.97
2017-07-19T11:59:22.115Z,30.09
2017-07-19T12:01:49.900Z,30.43
2017-07-19T12:04:19.447Z,30.54
2017-07-19T12:06:47.854Z,30.35
2017-07-19T12:09:16.468Z,30.21
2017-07-19T12:11:47.612Z,30.15
2017-07-19T12:14:18.158Z,30.11
2017-07-19T12:16:52.808Z,29.70
2017-07-19T12:19:23.742Z,30.33
2017-07-19T12:21:54.372Z,30.48
2017-07-19T12:24:22.874Z,30.22
2017-07-19T12:26:51.335Z,30.23
2017-07-19T12:29:20.626Z,30.19
2017-07-19T12:31:49.281Z,29.99
2017-07-19T12:34:18.356Z,30.12
2017-07-19T12:36:46.544Z,30.38
2017-07-19T12:39:14.730Z,29.88
2017-07-19T12:41:43.034Z,29.78
2017-07-19T12:44:11.576Z,30.07
2017-07-19T12:46:40.395Z,30.30
2017-07-19T12:49:08.191Z,30.23
2017-07-19T12:51:37.344Z,30.45
2017-07-19T12:54:05.704Z,30.55
2017-07-19T12:56:33.641Z,30.90
2017-07-19T12:59:02.864Z,30.82
2017-07-19T13:01:31.427Z,30.81
2017-07-19T13:04:00.748Z,30.97
2017-07-19T13:06:28.776Z,30.88
2017-07-19T13:08:57.400Z,30.05
2017-07-19T13:11:25.546Z,29.88
2017-07-19T13:13:53.934Z,29.71
2017-07-19T13:16:21.633Z,29.68
2017-07-19T13:18:50.346Z,29.70
2017-07-19T13:21:17.977Z,29.95
2017-07-19T13:23:46.972Z,29.70
2017-07-19T13:26:16.646Z,29.19
2017-07-19T13:28:45.316Z,29.29
2017-07-19T13:31:12.894Z,29.47
2017-07-19T13:33:41.646Z,29.27
2017-07-19T13:36:10.840Z,29.23
2017-07-19T13:38:38.735Z,29.25
2017-07-19T13:41:07.913Z,29.06
2017-07-19T13:43:36.502Z,28.96
2017-07-19T13:46:04.885Z,29.01
2017-07-19T13:48:32.557Z,29.16
2017-07-19T13:51:00.267Z,29.13
2017-07-19T13:53:28.765Z,28.86
2017-07-19T13:55:57.163Z,28.60
2017-07-19T13:58:24.826Z,28.51
2017-07-19T14:00:52.394Z,28.58
2017-07-19T14:03:20.091Z,28.62
2017-07-19T14:05:47.632Z,28.73
2017-07-19T14:08:15.356Z,28.74
2017-07-19T14:10:43.120Z,28.67
2017-07-19T14:13:10.886Z,28.42
2017-07-19T14:15:38.598Z,28.51
2017-07-19T14:18:06.322Z,28.59
2017-07-19T14:20:34.082Z,28.43
2017-07-19T14:23:01.834Z,28.46
2017-07-19T14:25:29.741Z,28.51
2017-07-19T14:27:58.645Z,28.46
2017-07-19T14:30:26.501Z,28.56
2017-07-19T14:32:54.664Z,28.55
2017-07-19T14:35:23.318Z,28.42
2017-07-19T14:37:50.952Z,28.42
2017-07-19T14:40:19.302Z,28.64
2017-07-19T14:42:48.035Z,28.52
2017-07-19T14:45:15.717Z,28.46
2017-07-19T14:47:43.425Z,28.39
2017-07-19T14:50:11.822Z,28.47
2017-07-19T14:52:39.443Z,28.53
2017-07-19T14:55:08.079Z,28.40
2017-07-19T14:57:36.055Z,28.37
2017-07-19T15:00:12.040Z,28.38
2017-07-19T15:02:40.373Z,28.48
2017-07-19T15:05:08.111Z,28.21
2017-07-19T15:07:36.444Z,28.12
2017-07-19T15:10:04.340Z,28.13
2017-07-19T15:12:31.957Z,27.93
2017-07-19T15:14:59.812Z,27.93
2017-07-19T15:17:28.279Z,27.86
2017-07-19T15:19:56.894Z,27.92
2017-07-19T15:22:25.400Z,27.86
2017-07-19T15:24:53.511Z,27.87
2017-07-19T15:27:21.778Z,27.80
2017-07-19T15:29:49.392Z,27.75
2017-07-19T15:32:17.005Z,27.71
2017-07-19T15:34:45.248Z,27.68
2017-07-19T15:37:12.798Z,27.67
2017-07-19T15:39:40.484Z,27.72
2017-07-19T15:42:08.609Z,27.76
2017-07-19T15:44:36.286Z,27.67
2017-07-19T15:47:05.470Z,27.80
2017-07-19T15:49:32.998Z,27.88
2017-07-19T15:52:00.831Z,27.80
2017-07-19T15:54:28.625Z,27.58
2017-07-19T15:56:56.503Z,27.61
2017-07-19T15:59:24.033Z,27.64
2017-07-19T16:01:52.743Z,27.53
2017-07-19T16:04:21.886Z,27.60
2017-07-19T16:06:49.507Z,27.55
2017-07-19T16:09:18.238Z,27.43
2017-07-19T16:11:46.354Z,27.42
2017-07-19T16:14:14.875Z,27.50
2017-07-19T16:16:42.556Z,27.50
2017-07-19T16:19:10.967Z,27.46
2017-07-19T16:21:39.271Z,27.44
2017-07-19T16:24:06.947Z,27.27
2017-07-19T16:26:35.759Z,27.22
2017-07-19T16:29:03.531Z,27.09
2017-07-19T16:31:31.177Z,27.13
2017-07-19T16:34:00.288Z,27.16
2017-07-19T16:36:27.871Z,27.11
2017-07-19T16:38:56.404Z,27.19
2017-07-19T16:41:25.775Z,27.20
2017-07-19T16:43:54.697Z,27.11
2017-07-19T16:46:23.638Z,27.03
2017-07-19T16:48:52.106Z,26.99
2017-07-19T16:51:21.166Z,27.00
2017-07-19T16:53:49.183Z,27.10
2017-07-19T16:56:18.645Z,27.13
2017-07-19T16:58:46.963Z,27.10
2017-07-19T17:01:15.541Z,27.05
2017-07-19T17:03:44.452Z,27.12
2017-07-19T17:06:12.075Z,27.09
2017-07-19T17:08:39.801Z,26.96
2017-07-19T17:11:07.482Z,26.94
2017-07-19T17:13:35.735Z,26.99
2017-07-19T17:16:04.186Z,26.85
2017-07-19T17:18:32.930Z,26.85
2017-07-19T17:21:03.090Z,26.86
2017-07-19T17:23:30.772Z,26.81
2017-07-19T17:26:01.979Z,26.79
2017-07-19T17:28:29.617Z,26.71
2017-07-19T17:30:58.712Z,26.70
2017-07-19T17:33:27.403Z,26.72
2017-07-19T17:35:56.862Z,26.59
2017-07-19T17:38:24.555Z,26.61
2017-07-19T17:40:53.002Z,26.60
2017-07-19T17:43:22.187Z,26.56
2017-07-19T17:45:49.786Z,26.57
2017-07-19T17:48:17.415Z,26.67
2017-07-19T17:50:45.804Z,26.61
2017-07-19T17:53:14.476Z,26.53
2017-07-19T17:55:45.559Z,26.46
2017-07-19T17:58:15.181Z,26.49
2017-07-19T18:00:43.815Z,26.39
2017-07-19T18:03:12.417Z,26.30
2017-07-19T18:05:40.505Z,26.14
2017-07-19T18:08:09.076Z,26.04
2017-07-19T18:10:37.460Z,25.94
2017-07-19T18:13:05.598Z,25.91
2017-07-19T18:15:33.932Z,25.89
2017-07-19T18:18:01.644Z,25.69
2017-07-19T18:20:29.333Z,25.59
2017-07-19T18:22:57.043Z,25.38
2017-07-19T18:25:40.508Z,25.26
2017-07-19T18:28:09.242Z,25.27
2017-07-19T18:30:37.153Z,25.37
2017-07-19T18:33:05.751Z,25.26
2017-07-19T18:35:33.474Z,25.20
2017-07-19T18:38:01.257Z,25.30
2017-07-19T18:40:29.908Z,25.28
2017-07-19T18:42:59.082Z,25.34
2017-07-19T18:45:27.739Z,25.20
2017-07-19T18:47:56.748Z,25.06
2017-07-19T18:50:27.006Z,25.07
2017-07-19T18:52:55.529Z,25.03
2017-07-19T18:55:24.720Z,24.95
2017-07-19T18:57:53.422Z,24.89
2017-07-19T19:03:42.937Z,24.90
2017-07-19T19:06:11.454Z,24.84
2017-07-19T19:08:39.164Z,24.75
2017-07-19T19:11:06.889Z,24.73
2017-07-19T19:13:34.605Z,24.61
2017-07-19T19:16:02.729Z,24.62
2017-07-19T19:18:30.946Z,24.51
2017-07-19T19:20:58.652Z,24.41
2017-07-19T19:23:26.353Z,24.29
2017-07-19T19:25:54.090Z,24.15
2017-07-19T19:28:21.721Z,24.06
2017-07-19T19:30:49.444Z,24.11
2017-07-19T19:33:17.194Z,24.07
2017-07-19T19:35:47.118Z,23.91
2017-07-19T19:38:14.866Z,23.85
2017-07-19T19:40:44.308Z,23.92
2017-07-19T19:43:12.017Z,23.89
2017-07-19T19:45:39.824Z,23.81
2017-07-19T19:48:07.493Z,23.66
2017-07-19T19:50:35.195Z,23.46
2017-07-19T19:53:03.761Z,23.32
2017-07-19T19:55:31.475Z,23.22
2017-07-19T19:57:59.229Z,23.20
2017-07-19T20:00:27.111Z,23.10
2017-07-19T20:02:55.674Z,23.13
2017-07-19T20:05:24.229Z,23.01
2017-07-19T20:07:53.026Z,22.90
2017-07-19T20:10:21.228Z,22.82
2017-07-19T20:12:49.518Z,22.74
2017-07-19T20:15:17.303Z,22.61
2017-07-19T20:17:44.936Z,22.46
2017-07-19T20:20:12.620Z,22.43
2017-07-19T20:22:43.562Z,22.35
2017-07-19T20:25:16.564Z,22.27
2017-07-19T20:27:46.372Z,22.20
2017-07-19T20:30:20.543Z,22.16
2017-07-19T20:32:56.392Z,22.25
2017-07-19T20:35:28.998Z,22.27
2017-07-19T20:37:59.017Z,22.27
2017-07-19T20:40:27.778Z,22.31
2017-07-19T20:42:56.600Z,22.23
2017-07-19T20:48:48.202Z,22.08
2017-07-19T20:51:19.207Z,22.08
2017-07-19T20:56:27.571Z,22.08
2017-07-19T20:58:55.957Z,22.11
2017-07-19T21:01:27.024Z,21.99
2017-07-19T21:03:59.366Z,21.92
2017-07-19T21:06:30.300Z,21.74
2017-07-19T21:08:58.143Z,21.74
2017-07-19T21:11:28.620Z,21.65
2017-07-19T21:13:57.276Z,21.60
2017-07-19T21:16:26.713Z,21.58
2017-07-19T21:18:54.896Z,21.48
2017-07-19T21:21:22.634Z,21.35
2017-07-19T21:23:51.347Z,21.35
2017-07-19T21:26:21.257Z,21.12
2017-07-19T21:28:50.244Z,21.16
2017-07-19T21:31:20.266Z,21.16
2017-07-19T21:33:52.305Z,21.11
2017-07-19T21:36:24.808Z,21.10
2017-07-19T21:44:53.261Z,21.00
2017-07-19T21:47:24.165Z,20.97
2017-07-19T21:49:52.131Z,21.02
2017-07-19T21:52:21.056Z,21.12
2017-07-19T21:54:50.111Z,21.16
2017-07-19T21:57:25.660Z,21.20
2017-07-19T21:59:59.771Z,21.06
2017-07-19T22:02:30.238Z,21.08
2017-07-19T22:04:57.897Z,21.09
2017-07-19T22:07:30.085Z,20.61
2017-07-19T22:10:05.445Z,20.97
2017-07-19T22:12:37.186Z,20.89
2017-07-19T22:15:08.126Z,20.79
2017-07-19T22:17:39.650Z,20.83
2017-07-19T22:20:10.145Z,20.73
2017-07-19T22:22:40.029Z,20.76
2017-07-19T22:25:11.728Z,20.81
2017-07-19T22:27:41.646Z,20.76
2017-07-19T22:30:17.932Z,20.78
2017-07-19T22:32:46.076Z,20.68
2017-07-19T22:35:14.236Z,20.73
2017-07-19T22:37:42.769Z,20.68
2017-07-19T22:40:11.833Z,20.74
2017-07-19T22:42:40.118Z,20.74
2017-07-19T22:45:08.992Z,20.78
2017-07-19T22:47:36.653Z,20.76
2017-07-19T22:50:04.334Z,20.74
2017-07-19T22:52:31.989Z,20.79
2017-07-19T22:55:00.877Z,20.72
2017-07-19T22:57:28.626Z,20.79
2017-07-19T22:59:57.275Z,20.68
2017-07-19T23:02:24.912Z,20.60
2017-07-19T23:04:52.512Z,20.58
2017-07-19T23:07:20.023Z,20.61
2017-07-19T23:09:48.541Z,20.58
2017-07-19T23:12:17.594Z,20.67
2017-07-19T23:14:45.150Z,20.61
2017-07-19T23:17:13.536Z,20.51
2017-07-19T23:19:42.460Z,20.51
2017-07-19T23:22:10.816Z,20.45
2017-07-19T23:24:38.501Z,20.35
2017-07-19T23:27:06.064Z,20.36
2017-07-19T23:29:33.782Z,20.29
2017-07-19T23:32:02.411Z,20.32
2017-07-19T23:34:30.119Z,20.28
2017-07-19T23:36:59.386Z,20.26
2017-07-19T23:39:29.016Z,20.10
2017-07-19T23:41:56.679Z,20.15
2017-07-19T23:44:24.318Z,20.10
2017-07-19T23:46:51.960Z,20.06
2017-07-19T23:49:21.857Z,20.14
2017-07-19T23:51:50.859Z,20.15
2017-07-19T23:54:18.643Z,20.14
2017-07-19T23:56:46.701Z,20.14
2017-07-19T23:59:14.319Z,20.13
